createdAt,value
2022-09-20T00:00:00.464Z,11.6
2022-09-20T00:05:00.365Z,11.5
2022-09-20T00:10:00.332Z,11.7
2022-09-20T00:15:00.145Z,11.8
2022-09-20T00:20:00.245Z,12
2022-09-20T00:25:00.230Z,11.8
2022-09-20T00:30:00.277Z,11.9
2022-09-20T00:35:00.478Z,11.9
2022-09-20T00:40:00.005Z,11.5
2022-09-20T00:45:00.210Z,11.5
2022-09-20T00:50:04.722Z,11.4
2022-09-20T00:55:02.450Z,11.5
2022-09-20T00:59:59.886Z,11.5
2022-09-20T01:04:59.947Z,11.2
2022-09-20T01:10:00.290Z,11.2
2022-09-20T01:14:59.878Z,11.2
2022-09-20T01:20:07.993Z,11.2
2022-09-20T01:25:00.115Z,11.2
2022-09-20T01:30:03.877Z,11.3
2022-09-20T01:35:00.301Z,11.2
2022-09-20T01:40:05.094Z,11.1
2022-09-20T01:45:00.058Z,11.2
2022-09-20T01:49:59.887Z,11.3
2022-09-20T01:54:59.943Z,11.1
2022-09-20T02:00:04.374Z,11.1
2022-09-20T02:04:59.860Z,11.3
2022-09-20T02:10:04.771Z,11.5
2022-09-20T02:15:04.904Z,11.1
2022-09-20T02:20:14.291Z,10.9
2022-09-20T02:24:59.891Z,11.2
2022-09-20T02:30:07.710Z,10.8
2022-09-20T02:35:14.446Z,10.8
2022-09-20T02:39:59.838Z,10.9
2022-09-20T02:45:03.252Z,11.1
2022-09-20T02:49:59.906Z,11.2
2022-09-20T02:55:04.426Z,11.4
2022-09-20T02:59:59.970Z,11.4
2022-09-20T03:04:59.747Z,11.3
2022-09-20T03:10:05.524Z,11.3
2022-09-20T03:15:05.514Z,11.2
2022-09-20T03:20:04.460Z,11.2
2022-09-20T03:24:59.908Z,11
2022-09-20T03:29:59.889Z,11.1
2022-09-20T03:34:59.893Z,11.4
2022-09-20T03:39:59.880Z,11.1
2022-09-20T03:45:21.326Z,10.8
2022-09-20T03:49:59.935Z,11.2
2022-09-20T03:55:00.006Z,11.3
2022-09-20T03:59:59.697Z,11.3
2022-09-20T04:05:02.214Z,11.1
2022-09-20T04:10:00.031Z,11.2
2022-09-20T04:15:06.116Z,11.3
2022-09-20T04:20:01.492Z,11.6
2022-09-20T04:24:59.971Z,11.5
2022-09-20T04:30:01.063Z,11.4
2022-09-20T04:34:59.938Z,11.4
2022-09-20T04:39:59.728Z,11.4
2022-09-20T04:44:59.677Z,11.5
2022-09-20T04:50:31.038Z,11.5
2022-09-20T04:55:28.932Z,11.5
2022-09-20T05:00:03.412Z,11
2022-09-20T05:05:39.041Z,11.3
2022-09-20T05:09:59.733Z,11.2
2022-09-20T05:14:59.951Z,11.4
2022-09-20T05:19:59.791Z,11.5
2022-09-20T05:25:14.373Z,11.4
2022-09-20T05:30:04.933Z,11.3
2022-09-20T05:35:03.477Z,11.4
2022-09-20T05:40:04.109Z,11.3
2022-09-20T05:45:06.658Z,11.2
2022-09-20T05:50:08.700Z,11.2
2022-09-20T05:54:59.668Z,11.1
2022-09-20T05:59:59.646Z,11.1
2022-09-20T06:04:59.739Z,11.2
2022-09-20T06:09:59.710Z,11.1
2022-09-20T06:14:59.674Z,11
2022-09-20T06:20:07.828Z,11
2022-09-20T06:25:01.745Z,10.9
2022-09-20T06:30:01.695Z,11.3
2022-09-20T06:34:59.852Z,11.3
2022-09-20T06:39:59.809Z,11.4
2022-09-20T06:44:59.700Z,11.6
2022-09-20T06:49:59.644Z,11.4
2022-09-20T06:55:00.050Z,11.4
2022-09-20T06:59:59.770Z,11.5
2022-09-20T07:04:59.807Z,11.4
2022-09-20T07:09:59.728Z,11.6
2022-09-20T07:14:59.522Z,11.8
2022-09-20T07:19:59.632Z,11.9
2022-09-20T07:24:59.721Z,11.9
2022-09-20T07:29:59.679Z,12.1
2022-09-20T07:34:59.701Z,12.2
2022-09-20T07:39:59.625Z,12.2
2022-09-20T07:44:59.728Z,12.4
2022-09-20T07:49:59.622Z,12.8
2022-09-20T07:54:59.566Z,13
2022-09-20T08:00:00.075Z,13.1
2022-09-20T08:04:59.621Z,13.2
2022-09-20T08:09:59.558Z,13.3
2022-09-20T08:14:59.682Z,13.1
2022-09-20T08:19:59.928Z,13.3
2022-09-20T08:24:59.718Z,13.6
2022-09-20T08:29:59.730Z,13.7
2022-09-20T08:34:59.398Z,13.5
2022-09-20T08:40:00.249Z,13.8
2022-09-20T08:44:59.550Z,13.8
2022-09-20T08:49:59.383Z,13.4
2022-09-20T08:54:59.641Z,13.8
2022-09-20T09:00:00.784Z,13.6
2022-09-20T09:04:59.782Z,14.1
2022-09-20T09:09:59.612Z,13.7
2022-09-20T09:15:03.034Z,14
2022-09-20T09:19:59.498Z,14.2
2022-09-20T09:25:08.174Z,14.4
2022-09-20T09:29:59.583Z,14.5
2022-09-20T09:35:19.757Z,14.4
2022-09-20T09:39:59.505Z,14.2
2022-09-20T09:44:59.666Z,13.9
2022-09-20T09:50:02.583Z,13.8
2022-09-20T09:55:03.727Z,13.7
2022-09-20T10:00:08.020Z,13.8
2022-09-20T10:04:59.381Z,14
2022-09-20T10:09:59.699Z,14.3
2022-09-20T10:15:08.064Z,14.2
2022-09-20T10:19:59.627Z,14.4
2022-09-20T10:25:01.815Z,14.6
2022-09-20T10:30:01.775Z,14.7
2022-09-20T10:34:59.539Z,14.5
2022-09-20T10:40:03.291Z,14.6
2022-09-20T10:45:05.887Z,14.9
2022-09-20T10:50:02.712Z,15.1
2022-09-20T10:54:59.456Z,15.4
2022-09-20T10:59:59.630Z,15.5
2022-09-20T11:04:59.479Z,15.9
2022-09-20T11:10:02.288Z,15.8
2022-09-20T11:14:59.423Z,15.9
2022-09-20T11:20:02.125Z,15.7
2022-09-20T11:25:01.212Z,15.6
2022-09-20T11:29:59.509Z,15.9
2022-09-20T11:34:59.524Z,15.7
2022-09-20T11:40:00.457Z,15.9
2022-09-20T11:44:59.595Z,15.7
2022-09-20T11:50:16.857Z,16.1
2022-09-20T11:55:07.026Z,16.1
2022-09-20T12:00:00.753Z,16.5
2022-09-20T12:04:59.474Z,17
2022-09-20T12:10:01.352Z,16.6
2022-09-20T12:14:59.371Z,16.3
2022-09-20T18:14:59.062Z,16
2022-09-20T18:20:00.978Z,16
2022-09-20T18:25:00.328Z,16
2022-09-20T18:30:00.580Z,16
2022-09-20T18:35:00.276Z,16
2022-09-20T18:40:00.966Z,16
2022-09-20T18:45:00.479Z,16
2022-09-20T18:50:00.280Z,16
2022-09-20T18:55:00.619Z,16
2022-09-20T19:00:03.589Z,16
2022-09-20T19:05:00.212Z,16
2022-09-20T19:10:03.826Z,16
2022-09-20T19:15:00.167Z,16
2022-09-20T19:20:02.843Z,16
2022-09-20T19:25:00.275Z,16
2022-09-20T19:30:00.488Z,16
2022-09-20T19:35:00.266Z,16
2022-09-20T19:40:00.400Z,16
2022-09-20T19:45:00.424Z,16
2022-09-20T19:50:06.786Z,16
2022-09-20T19:55:00.239Z,16
2022-09-20T20:00:00.987Z,16
2022-09-20T20:05:00.572Z,16
2022-09-20T20:10:05.046Z,16
2022-09-20T20:15:06.612Z,16
2022-09-20T20:20:04.917Z,16
2022-09-20T20:25:00.780Z,16
2022-09-20T20:30:00.470Z,16
2022-09-20T20:35:00.148Z,16
2022-09-20T20:40:00.287Z,16
2022-09-20T20:45:00.567Z,16
2022-09-20T20:50:00.373Z,16
2022-09-20T20:55:00.092Z,16
2022-09-20T21:00:00.877Z,16
2022-09-20T21:05:00.167Z,16
2022-09-20T21:10:00.318Z,16
2022-09-20T21:15:00.452Z,16
2022-09-20T21:20:00.193Z,16
2022-09-20T21:25:00.306Z,16
2022-09-20T21:30:00.081Z,16
2022-09-20T21:35:00.717Z,16
2022-09-20T21:40:00.390Z,16
2022-09-20T21:44:59.993Z,16
2022-09-20T21:50:00.244Z,16
2022-09-20T21:55:00.035Z,16
2022-09-20T22:00:00.300Z,16
2022-09-20T22:05:00.122Z,16
2022-09-20T22:10:00.295Z,16
2022-09-20T22:15:00.335Z,16
2022-09-20T22:20:00.254Z,16
2022-09-20T22:25:00.260Z,16
2022-09-20T22:30:04.649Z,16
2022-09-20T22:35:00.187Z,16
2022-09-20T22:40:00.478Z,16
2022-09-20T22:45:00.134Z,16
2022-09-20T22:50:00.064Z,16
2022-09-20T22:55:00.060Z,16
2022-09-20T23:00:00.483Z,16
2022-09-20T23:05:00.140Z,16
2022-09-20T23:10:00.021Z,16
2022-09-20T23:15:00.357Z,16
2022-09-20T23:20:00.012Z,16
2022-09-20T23:25:00.090Z,16
2022-09-20T23:30:00.284Z,16
2022-09-20T23:34:59.987Z,16
2022-09-20T23:40:00.055Z,16
2022-09-20T23:45:00.003Z,16
2022-09-20T23:50:00.322Z,16
2022-09-20T23:55:00.150Z,16
